sensor_id;sensor_type;location;lat;lon;timestamp;P1;durP1;ratioP1;P2;durP2;ratioP2
66886;SDS011;53798;51.680;5.976;2022-09-03T00:00:51;5.13;;;1.48;;
66886;SDS011;53798;51.680;5.976;2022-09-03T00:06:13;2.17;;;1.45;;
66886;SDS011;53798;51.680;5.976;2022-09-03T00:14:18;7.75;;;1.63;;
66886;SDS011;53798;51.680;5.976;2022-09-03T00:16:55;3.92;;;1.38;;
66886;SDS011;53798;51.680;5.976;2022-09-03T00:19:33;4.07;;;1.30;;
66886;SDS011;53798;51.680;5.976;2022-09-03T00:22:08;5.43;;;1.50;;
66886;SDS011;53798;51.680;5.976;2022-09-03T00:24:44;3.47;;;1.35;;
66886;SDS011;53798;51.680;5.976;2022-09-03T00:27:16;3.00;;;1.67;;
66886;SDS011;53798;51.680;5.976;2022-09-03T00:29:54;3.00;;;1.42;;
66886;SDS011;53798;51.680;5.976;2022-09-03T00:35:25;4.55;;;1.58;;
66886;SDS011;53798;51.680;5.976;2022-09-03T00:37:59;4.55;;;1.58;;
66886;SDS011;53798;51.680;5.976;2022-09-03T00:43:52;4.07;;;1.70;;
66886;SDS011;53798;51.680;5.976;2022-09-03T00:46:48;3.45;;;1.45;;
66886;SDS011;53798;51.680;5.976;2022-09-03T01:01:27;3.67;;;1.50;;
66886;SDS011;53798;51.680;5.976;2022-09-03T01:18:40;6.15;;;1.92;;
66886;SDS011;53798;51.680;5.976;2022-09-03T01:31:15;3.47;;;1.88;;
66886;SDS011;53798;51.680;5.976;2022-09-03T01:42:32;2.85;;;1.90;;
66886;SDS011;53798;51.680;5.976;2022-09-03T01:45:37;5.22;;;1.75;;
66886;SDS011;53798;51.680;5.976;2022-09-03T01:48:30;3.72;;;1.80;;
66886;SDS011;53798;51.680;5.976;2022-09-03T01:54:09;4.75;;;1.65;;
66886;SDS011;53798;51.680;5.976;2022-09-03T02:00:07;2.42;;;1.48;;
66886;SDS011;53798;51.680;5.976;2022-09-03T02:02:40;3.75;;;1.80;;
66886;SDS011;53798;51.680;5.976;2022-09-03T02:05:14;4.13;;;1.75;;
66886;SDS011;53798;51.680;5.976;2022-09-03T02:13:24;4.55;;;1.70;;
66886;SDS011;53798;51.680;5.976;2022-09-03T02:15:58;5.80;;;2.10;;
66886;SDS011;53798;51.680;5.976;2022-09-03T02:18:38;2.50;;;1.60;;
66886;SDS011;53798;51.680;5.976;2022-09-03T02:21:13;4.10;;;1.80;;
66886;SDS011;53798;51.680;5.976;2022-09-03T02:23:47;3.00;;;1.70;;
66886;SDS011;53798;51.680;5.976;2022-09-03T02:26:17;2.70;;;1.75;;
66886;SDS011;53798;51.680;5.976;2022-09-03T02:28:48;5.45;;;2.22;;
66886;SDS011;53798;51.680;5.976;2022-09-03T02:31:17;8.40;;;1.80;;
66886;SDS011;53798;51.680;5.976;2022-09-03T02:33:45;3.28;;;1.98;;
66886;SDS011;53798;51.680;5.976;2022-09-03T02:36:17;2.33;;;1.65;;
66886;SDS011;53798;51.680;5.976;2022-09-03T02:38:53;4.63;;;1.50;;
66886;SDS011;53798;51.680;5.976;2022-09-03T02:41:20;3.55;;;2.17;;
66886;SDS011;53798;51.680;5.976;2022-09-03T02:43:57;8.18;;;1.70;;
66886;SDS011;53798;51.680;5.976;2022-09-03T02:46:33;5.95;;;2.00;;
66886;SDS011;53798;51.680;5.976;2022-09-03T02:49:06;3.42;;;1.70;;
66886;SDS011;53798;51.680;5.976;2022-09-03T02:51:38;6.43;;;1.95;;
66886;SDS011;53798;51.680;5.976;2022-09-03T02:54:08;3.35;;;1.63;;
66886;SDS011;53798;51.680;5.976;2022-09-03T02:56:37;4.40;;;1.98;;
66886;SDS011;53798;51.680;5.976;2022-09-03T02:59:07;2.67;;;1.75;;
66886;SDS011;53798;51.680;5.976;2022-09-03T03:01:35;3.30;;;1.70;;
66886;SDS011;53798;51.680;5.976;2022-09-03T03:04:04;4.78;;;2.08;;
66886;SDS011;53798;51.680;5.976;2022-09-03T03:06:31;4.95;;;2.25;;
66886;SDS011;53798;51.680;5.976;2022-09-03T03:08:59;3.05;;;1.67;;
66886;SDS011;53798;51.680;5.976;2022-09-03T03:11:27;2.78;;;1.88;;
66886;SDS011;53798;51.680;5.976;2022-09-03T03:13:54;4.22;;;2.20;;
66886;SDS011;53798;51.680;5.976;2022-09-03T03:16:21;5.18;;;2.30;;
66886;SDS011;53798;51.680;5.976;2022-09-03T03:18:49;5.57;;;2.03;;
66886;SDS011;53798;51.680;5.976;2022-09-03T03:21:17;3.15;;;1.95;;
66886;SDS011;53798;51.680;5.976;2022-09-03T03:23:47;5.60;;;2.33;;
66886;SDS011;53798;51.680;5.976;2022-09-03T03:26:16;5.22;;;2.35;;
66886;SDS011;53798;51.680;5.976;2022-09-03T03:28:46;5.05;;;2.45;;
66886;SDS011;53798;51.680;5.976;2022-09-03T03:31:16;7.68;;;2.47;;
66886;SDS011;53798;51.680;5.976;2022-09-03T03:33:49;5.80;;;2.83;;
66886;SDS011;53798;51.680;5.976;2022-09-03T03:36:29;4.18;;;2.00;;
66886;SDS011;53798;51.680;5.976;2022-09-03T03:38:59;2.75;;;2.20;;
66886;SDS011;53798;51.680;5.976;2022-09-03T03:41:29;5.53;;;2.83;;
66886;SDS011;53798;51.680;5.976;2022-09-03T03:44:02;4.18;;;2.30;;
66886;SDS011;53798;51.680;5.976;2022-09-03T03:46:33;6.63;;;2.20;;
66886;SDS011;53798;51.680;5.976;2022-09-03T03:51:36;5.97;;;2.20;;
66886;SDS011;53798;51.680;5.976;2022-09-03T03:54:05;4.35;;;2.05;;
66886;SDS011;53798;51.680;5.976;2022-09-03T03:56:32;2.53;;;1.85;;
66886;SDS011;53798;51.680;5.976;2022-09-03T03:59:01;3.67;;;1.92;;
66886;SDS011;53798;51.680;5.976;2022-09-03T04:01:29;3.63;;;2.08;;
66886;SDS011;53798;51.680;5.976;2022-09-03T04:04:00;3.70;;;2.08;;
66886;SDS011;53798;51.680;5.976;2022-09-03T04:06:28;4.65;;;2.10;;
66886;SDS011;53798;51.680;5.976;2022-09-03T04:08:55;3.38;;;2.20;;
66886;SDS011;53798;51.680;5.976;2022-09-03T04:11:22;3.97;;;1.90;;
66886;SDS011;53798;51.680;5.976;2022-09-03T04:13:50;2.97;;;2.05;;
66886;SDS011;53798;51.680;5.976;2022-09-03T04:16:20;4.90;;;1.90;;
66886;SDS011;53798;51.680;5.976;2022-09-03T04:18:50;4.03;;;2.25;;
66886;SDS011;53798;51.680;5.976;2022-09-03T04:21:24;3.28;;;2.00;;
66886;SDS011;53798;51.680;5.976;2022-09-03T04:23:54;5.03;;;2.53;;
66886;SDS011;53798;51.680;5.976;2022-09-03T04:26:25;5.78;;;2.20;;
66886;SDS011;53798;51.680;5.976;2022-09-03T04:28:58;4.28;;;2.10;;
66886;SDS011;53798;51.680;5.976;2022-09-03T04:31:30;4.88;;;2.00;;
66886;SDS011;53798;51.680;5.976;2022-09-03T04:33:58;4.57;;;2.33;;
66886;SDS011;53798;51.680;5.976;2022-09-03T04:36:27;4.55;;;2.40;;
66886;SDS011;53798;51.680;5.976;2022-09-03T04:38:59;8.88;;;2.30;;
66886;SDS011;53798;51.680;5.976;2022-09-03T04:41:28;4.18;;;2.10;;
66886;SDS011;53798;51.680;5.976;2022-09-03T04:43:57;3.22;;;2.08;;
66886;SDS011;53798;51.680;5.976;2022-09-03T04:46:26;5.00;;;2.25;;
66886;SDS011;53798;51.680;5.976;2022-09-03T04:48:59;5.32;;;2.20;;
66886;SDS011;53798;51.680;5.976;2022-09-03T04:51:28;5.65;;;2.55;;
66886;SDS011;53798;51.680;5.976;2022-09-03T04:53:58;6.63;;;2.50;;
66886;SDS011;53798;51.680;5.976;2022-09-03T04:56:33;7.57;;;2.50;;
66886;SDS011;53798;51.680;5.976;2022-09-03T04:59:02;5.93;;;1.90;;
66886;SDS011;53798;51.680;5.976;2022-09-03T05:01:36;4.13;;;1.92;;
66886;SDS011;53798;51.680;5.976;2022-09-03T05:04:06;3.55;;;2.00;;
66886;SDS011;53798;51.680;5.976;2022-09-03T05:06:34;3.47;;;2.28;;
66886;SDS011;53798;51.680;5.976;2022-09-03T05:09:03;4.95;;;2.20;;
66886;SDS011;53798;51.680;5.976;2022-09-03T05:11:31;6.28;;;2.10;;
66886;SDS011;53798;51.680;5.976;2022-09-03T05:13:58;4.15;;;1.98;;
66886;SDS011;53798;51.680;5.976;2022-09-03T05:16:26;6.88;;;2.20;;
66886;SDS011;53798;51.680;5.976;2022-09-03T05:18:57;3.15;;;2.30;;
66886;SDS011;53798;51.680;5.976;2022-09-03T05:21:27;5.28;;;2.60;;
66886;SDS011;53798;51.680;5.976;2022-09-03T05:23:55;7.32;;;2.50;;
66886;SDS011;53798;51.680;5.976;2022-09-03T05:26:24;6.85;;;2.50;;
66886;SDS011;53798;51.680;5.976;2022-09-03T05:28:56;4.32;;;1.90;;
66886;SDS011;53798;51.680;5.976;2022-09-03T05:31:28;7.55;;;2.80;;
66886;SDS011;53798;51.680;5.976;2022-09-03T05:33:58;3.70;;;2.35;;
66886;SDS011;53798;51.680;5.976;2022-09-03T05:36:30;7.20;;;2.33;;
66886;SDS011;53798;51.680;5.976;2022-09-03T05:39:00;5.72;;;2.45;;
66886;SDS011;53798;51.680;5.976;2022-09-03T05:41:31;7.22;;;2.35;;
66886;SDS011;53798;51.680;5.976;2022-09-03T05:44:02;4.97;;;2.00;;
66886;SDS011;53798;51.680;5.976;2022-09-03T05:46:32;4.80;;;2.08;;
66886;SDS011;53798;51.680;5.976;2022-09-03T05:49:00;4.72;;;1.98;;
66886;SDS011;53798;51.680;5.976;2022-09-03T05:51:31;3.85;;;2.10;;
66886;SDS011;53798;51.680;5.976;2022-09-03T05:54:00;3.97;;;2.22;;
66886;SDS011;53798;51.680;5.976;2022-09-03T05:56:35;8.23;;;2.50;;
66886;SDS011;53798;51.680;5.976;2022-09-03T05:59:09;6.03;;;2.15;;
66886;SDS011;53798;51.680;5.976;2022-09-03T06:01:38;4.90;;;2.10;;
66886;SDS011;53798;51.680;5.976;2022-09-03T06:04:12;6.30;;;1.90;;
66886;SDS011;53798;51.680;5.976;2022-09-03T06:06:44;5.43;;;2.33;;
66886;SDS011;53798;51.680;5.976;2022-09-03T06:09:14;5.40;;;2.20;;
66886;SDS011;53798;51.680;5.976;2022-09-03T06:11:46;5.75;;;1.80;;
66886;SDS011;53798;51.680;5.976;2022-09-03T06:14:16;4.28;;;1.90;;
66886;SDS011;53798;51.680;5.976;2022-09-03T06:16:44;3.35;;;1.70;;
66886;SDS011;53798;51.680;5.976;2022-09-03T06:19:18;3.85;;;1.55;;
66886;SDS011;53798;51.680;5.976;2022-09-03T06:21:46;4.72;;;1.80;;
66886;SDS011;53798;51.680;5.976;2022-09-03T06:24:15;7.43;;;1.90;;
66886;SDS011;53798;51.680;5.976;2022-09-03T06:26:45;4.22;;;1.60;;
66886;SDS011;53798;51.680;5.976;2022-09-03T06:31:45;2.90;;;1.55;;
66886;SDS011;53798;51.680;5.976;2022-09-03T06:34:14;2.42;;;1.40;;
66886;SDS011;53798;51.680;5.976;2022-09-03T06:36:44;5.00;;;1.40;;
66886;SDS011;53798;51.680;5.976;2022-09-03T06:39:12;6.32;;;1.67;;
66886;SDS011;53798;51.680;5.976;2022-09-03T06:41:40;2.72;;;1.50;;
66886;SDS011;53798;51.680;5.976;2022-09-03T06:44:07;3.90;;;1.30;;
66886;SDS011;53798;51.680;5.976;2022-09-03T06:46:38;5.63;;;1.55;;
66886;SDS011;53798;51.680;5.976;2022-09-03T06:49:10;4.18;;;1.40;;
66886;SDS011;53798;51.680;5.976;2022-09-03T06:51:37;6.03;;;1.40;;
66886;SDS011;53798;51.680;5.976;2022-09-03T06:54:07;4.43;;;1.40;;
66886;SDS011;53798;51.680;5.976;2022-09-03T06:56:38;2.22;;;1.20;;
66886;SDS011;53798;51.680;5.976;2022-09-03T06:59:08;3.30;;;1.20;;
66886;SDS011;53798;51.680;5.976;2022-09-03T07:01:39;3.92;;;1.50;;
66886;SDS011;53798;51.680;5.976;2022-09-03T07:04:12;1.77;;;1.20;;
66886;SDS011;53798;51.680;5.976;2022-09-03T07:06:45;8.70;;;2.07;;
66886;SDS011;53798;51.680;5.976;2022-09-03T07:09:12;2.75;;;1.05;;
66886;SDS011;53798;51.680;5.976;2022-09-03T07:11:42;5.68;;;1.20;;
66886;SDS011;53798;51.680;5.976;2022-09-03T07:14:18;4.60;;;1.17;;
66886;SDS011;53798;51.680;5.976;2022-09-03T07:16:49;4.22;;;1.25;;
66886;SDS011;53798;51.680;5.976;2022-09-03T07:19:16;6.45;;;1.40;;
66886;SDS011;53798;51.680;5.976;2022-09-03T07:21:44;4.70;;;1.13;;
66886;SDS011;53798;51.680;5.976;2022-09-03T07:24:18;7.82;;;1.25;;
66886;SDS011;53798;51.680;5.976;2022-09-03T07:26:47;3.03;;;1.45;;
66886;SDS011;53798;51.680;5.976;2022-09-03T07:29:16;4.43;;;1.23;;
66886;SDS011;53798;51.680;5.976;2022-09-03T07:31:47;3.22;;;1.08;;
66886;SDS011;53798;51.680;5.976;2022-09-03T07:34:19;2.60;;;1.10;;
66886;SDS011;53798;51.680;5.976;2022-09-03T07:36:52;4.10;;;1.08;;
66886;SDS011;53798;51.680;5.976;2022-09-03T07:39:21;3.25;;;1.13;;
66886;SDS011;53798;51.680;5.976;2022-09-03T07:41:48;7.13;;;1.20;;
66886;SDS011;53798;51.680;5.976;2022-09-03T07:44:17;4.55;;;1.20;;
66886;SDS011;53798;51.680;5.976;2022-09-03T07:46:45;3.70;;;0.90;;
66886;SDS011;53798;51.680;5.976;2022-09-03T07:49:15;2.72;;;1.23;;
66886;SDS011;53798;51.680;5.976;2022-09-03T07:51:43;2.88;;;1.05;;
66886;SDS011;53798;51.680;5.976;2022-09-03T07:54:12;4.65;;;1.02;;
66886;SDS011;53798;51.680;5.976;2022-09-03T07:56:39;4.00;;;1.02;;
66886;SDS011;53798;51.680;5.976;2022-09-03T07:59:06;5.13;;;1.10;;
66886;SDS011;53798;51.680;5.976;2022-09-03T08:01:35;4.05;;;1.52;;
66886;SDS011;53798;51.680;5.976;2022-09-03T08:04:07;4.05;;;1.40;;
66886;SDS011;53798;51.680;5.976;2022-09-03T08:06:37;3.33;;;1.33;;
66886;SDS011;53798;51.680;5.976;2022-09-03T08:09:10;2.95;;;1.05;;
66886;SDS011;53798;51.680;5.976;2022-09-03T08:11:40;2.40;;;1.05;;
66886;SDS011;53798;51.680;5.976;2022-09-03T08:14:10;3.92;;;1.10;;
66886;SDS011;53798;51.680;5.976;2022-09-03T08:16:41;5.28;;;1.23;;
66886;SDS011;53798;51.680;5.976;2022-09-03T08:19:16;2.88;;;1.10;;
66886;SDS011;53798;51.680;5.976;2022-09-03T08:21:44;6.18;;;1.20;;
66886;SDS011;53798;51.680;5.976;2022-09-03T08:24:13;3.90;;;1.20;;
66886;SDS011;53798;51.680;5.976;2022-09-03T08:26:43;6.30;;;1.13;;
66886;SDS011;53798;51.680;5.976;2022-09-03T08:31:45;6.38;;;1.40;;
66886;SDS011;53798;51.680;5.976;2022-09-03T08:34:12;5.85;;;1.25;;
66886;SDS011;53798;51.680;5.976;2022-09-03T08:36:40;3.42;;;1.25;;
66886;SDS011;53798;51.680;5.976;2022-09-03T08:39:08;6.65;;;1.67;;
66886;SDS011;53798;51.680;5.976;2022-09-03T08:44:19;3.85;;;1.25;;
66886;SDS011;53798;51.680;5.976;2022-09-03T08:49:54;5.88;;;1.40;;
66886;SDS011;53798;51.680;5.976;2022-09-03T08:58:22;5.95;;;1.25;;
66886;SDS011;53798;51.680;5.976;2022-09-03T09:13:19;4.03;;;1.33;;
66886;SDS011;53798;51.680;5.976;2022-09-03T09:21:33;4.75;;;1.42;;
66886;SDS011;53798;51.680;5.976;2022-09-03T09:24:22;7.70;;;1.65;;
66886;SDS011;53798;51.680;5.976;2022-09-03T09:26:54;3.92;;;1.17;;
66886;SDS011;53798;51.680;5.976;2022-09-03T09:29:32;8.48;;;1.67;;
66886;SDS011;53798;51.680;5.976;2022-09-03T09:32:03;3.88;;;1.42;;
66886;SDS011;53798;51.680;5.976;2022-09-03T09:34:38;4.20;;;1.30;;
66886;SDS011;53798;51.680;5.976;2022-09-03T09:37:11;7.47;;;1.02;;
66886;SDS011;53798;51.680;5.976;2022-09-03T09:39:54;4.55;;;1.27;;
66886;SDS011;53798;51.680;5.976;2022-09-03T09:42:25;3.13;;;1.45;;
66886;SDS011;53798;51.680;5.976;2022-09-03T09:44:55;5.78;;;1.38;;
66886;SDS011;53798;51.680;5.976;2022-09-03T09:47:29;6.20;;;1.17;;
66886;SDS011;53798;51.680;5.976;2022-09-03T09:50:14;6.03;;;1.13;;
66886;SDS011;53798;51.680;5.976;2022-09-03T09:52:59;5.00;;;1.30;;
66886;SDS011;53798;51.680;5.976;2022-09-03T09:55:53;10.48;;;1.58;;
66886;SDS011;53798;51.680;5.976;2022-09-03T09:58:25;3.10;;;1.30;;
66886;SDS011;53798;51.680;5.976;2022-09-03T10:00:57;2.08;;;1.00;;
66886;SDS011;53798;51.680;5.976;2022-09-03T10:03:58;4.05;;;1.30;;
66886;SDS011;53798;51.680;5.976;2022-09-03T10:06:54;9.77;;;1.38;;
66886;SDS011;53798;51.680;5.976;2022-09-03T10:09:29;5.43;;;1.48;;
66886;SDS011;53798;51.680;5.976;2022-09-03T10:12:09;4.50;;;1.30;;
66886;SDS011;53798;51.680;5.976;2022-09-03T10:14:52;3.72;;;1.15;;
66886;SDS011;53798;51.680;5.976;2022-09-03T10:17:34;4.82;;;0.90;;
66886;SDS011;53798;51.680;5.976;2022-09-03T10:20:22;13.18;;;1.35;;
66886;SDS011;53798;51.680;5.976;2022-09-03T10:23:23;4.72;;;1.35;;
66886;SDS011;53798;51.680;5.976;2022-09-03T10:28:34;8.15;;;1.45;;
66886;SDS011;53798;51.680;5.976;2022-09-03T10:40:15;4.07;;;0.90;;
66886;SDS011;53798;51.680;5.976;2022-09-03T10:45:46;8.85;;;1.10;;
66886;SDS011;53798;51.680;5.976;2022-09-03T10:51:42;1.50;;;0.90;;
66886;SDS011;53798;51.680;5.976;2022-09-03T10:57:37;2.80;;;0.98;;
66886;SDS011;53798;51.680;5.976;2022-09-03T11:00:31;3.25;;;1.02;;
66886;SDS011;53798;51.680;5.976;2022-09-03T11:06:09;4.32;;;0.70;;
66886;SDS011;53798;51.680;5.976;2022-09-03T11:08:54;2.20;;;0.80;;
66886;SDS011;53798;51.680;5.976;2022-09-03T11:11:34;2.25;;;0.95;;
66886;SDS011;53798;51.680;5.976;2022-09-03T11:14:12;4.22;;;1.20;;
66886;SDS011;53798;51.680;5.976;2022-09-03T11:16:47;4.20;;;1.20;;
66886;SDS011;53798;51.680;5.976;2022-09-03T11:19:23;1.60;;;0.77;;
66886;SDS011;53798;51.680;5.976;2022-09-03T11:22:00;3.08;;;1.02;;
66886;SDS011;53798;51.680;5.976;2022-09-03T11:24:32;3.58;;;0.88;;
66886;SDS011;53798;51.680;5.976;2022-09-03T11:27:01;2.78;;;1.00;;
66886;SDS011;53798;51.680;5.976;2022-09-03T11:30:07;4.57;;;0.88;;
66886;SDS011;53798;51.680;5.976;2022-09-03T11:33:16;3.63;;;1.15;;
66886;SDS011;53798;51.680;5.976;2022-09-03T11:35:38;4.05;;;1.10;;
66886;SDS011;53798;51.680;5.976;2022-09-03T11:40:59;6.57;;;1.00;;
66886;SDS011;53798;51.680;5.976;2022-09-03T11:43:41;4.78;;;0.85;;
66886;SDS011;53798;51.680;5.976;2022-09-03T11:46:12;3.17;;;1.10;;
66886;SDS011;53798;51.680;5.976;2022-09-03T11:49:23;1.55;;;0.90;;
66886;SDS011;53798;51.680;5.976;2022-09-03T11:51:59;4.90;;;1.20;;
66886;SDS011;53798;51.680;5.976;2022-09-03T11:54:41;3.45;;;1.00;;
66886;SDS011;53798;51.680;5.976;2022-09-03T11:57:13;7.03;;;1.13;;
66886;SDS011;53798;51.680;5.976;2022-09-03T11:59:47;6.95;;;1.10;;
66886;SDS011;53798;51.680;5.976;2022-09-03T12:02:18;1.92;;;0.90;;
66886;SDS011;53798;51.680;5.976;2022-09-03T12:10:55;1.77;;;1.00;;
66886;SDS011;53798;51.680;5.976;2022-09-03T12:13:47;2.40;;;0.90;;
66886;SDS011;53798;51.680;5.976;2022-09-03T12:16:28;4.93;;;1.10;;
66886;SDS011;53798;51.680;5.976;2022-09-03T12:19:13;3.35;;;1.00;;
66886;SDS011;53798;51.680;5.976;2022-09-03T12:22:19;4.93;;;1.10;;
66886;SDS011;53798;51.680;5.976;2022-09-03T12:24:49;5.93;;;1.30;;
66886;SDS011;53798;51.680;5.976;2022-09-03T12:27:18;1.77;;;1.10;;
66886;SDS011;53798;51.680;5.976;2022-09-03T12:29:51;4.03;;;0.95;;
66886;SDS011;53798;51.680;5.976;2022-09-03T12:32:26;2.75;;;1.23;;
66886;SDS011;53798;51.680;5.976;2022-09-03T12:35:08;1.57;;;0.80;;
66886;SDS011;53798;51.680;5.976;2022-09-03T12:37:37;5.35;;;1.08;;
66886;SDS011;53798;51.680;5.976;2022-09-03T12:40:29;4.13;;;0.98;;
66886;SDS011;53798;51.680;5.976;2022-09-03T12:43:13;2.85;;;1.15;;
66886;SDS011;53798;51.680;5.976;2022-09-03T12:46:02;3.10;;;1.25;;
66886;SDS011;53798;51.680;5.976;2022-09-03T12:48:38;2.55;;;1.20;;
66886;SDS011;53798;51.680;5.976;2022-09-03T12:51:40;4.25;;;1.17;;
66886;SDS011;53798;51.680;5.976;2022-09-03T12:54:18;3.28;;;1.10;;
66886;SDS011;53798;51.680;5.976;2022-09-03T12:56:47;4.07;;;1.10;;
66886;SDS011;53798;51.680;5.976;2022-09-03T12:59:23;3.72;;;1.10;;
66886;SDS011;53798;51.680;5.976;2022-09-03T13:01:59;7.78;;;1.30;;
66886;SDS011;53798;51.680;5.976;2022-09-03T13:04:47;3.25;;;0.95;;
66886;SDS011;53798;51.680;5.976;2022-09-03T13:07:26;3.15;;;1.05;;
66886;SDS011;53798;51.680;5.976;2022-09-03T13:10:04;6.13;;;1.20;;
66886;SDS011;53798;51.680;5.976;2022-09-03T13:12:45;6.47;;;1.05;;
66886;SDS011;53798;51.680;5.976;2022-09-03T13:15:20;3.10;;;0.98;;
66886;SDS011;53798;51.680;5.976;2022-09-03T13:18:07;2.92;;;1.00;;
66886;SDS011;53798;51.680;5.976;2022-09-03T13:26:45;3.13;;;1.10;;
66886;SDS011;53798;51.680;5.976;2022-09-03T13:29:36;4.40;;;1.33;;
66886;SDS011;53798;51.680;5.976;2022-09-03T13:32:13;3.83;;;1.35;;
66886;SDS011;53798;51.680;5.976;2022-09-03T13:34:50;3.58;;;1.15;;
66886;SDS011;53798;51.680;5.976;2022-09-03T13:37:44;1.48;;;0.98;;
66886;SDS011;53798;51.680;5.976;2022-09-03T13:40:44;6.43;;;1.15;;
66886;SDS011;53798;51.680;5.976;2022-09-03T13:43:40;6.72;;;1.30;;
66886;SDS011;53798;51.680;5.976;2022-09-03T13:48:56;9.07;;;1.15;;
66886;SDS011;53798;51.680;5.976;2022-09-03T13:51:59;2.35;;;1.05;;
66886;SDS011;53798;51.680;5.976;2022-09-03T13:54:34;3.55;;;1.10;;
66886;SDS011;53798;51.680;5.976;2022-09-03T14:02:49;2.67;;;1.10;;
66886;SDS011;53798;51.680;5.976;2022-09-03T14:05:33;1.33;;;0.88;;
66886;SDS011;53798;51.680;5.976;2022-09-03T14:08:31;3.60;;;1.15;;
66886;SDS011;53798;51.680;5.976;2022-09-03T14:11:29;2.90;;;1.10;;
66886;SDS011;53798;51.680;5.976;2022-09-03T14:14:38;2.95;;;1.05;;
66886;SDS011;53798;51.680;5.976;2022-09-03T14:21:02;4.32;;;1.30;;
66886;SDS011;53798;51.680;5.976;2022-09-03T14:23:51;2.78;;;1.20;;
66886;SDS011;53798;51.680;5.976;2022-09-03T14:27:00;6.63;;;1.50;;
66886;SDS011;53798;51.680;5.976;2022-09-03T14:29:30;7.25;;;1.30;;
66886;SDS011;53798;51.680;5.976;2022-09-03T14:35:17;6.88;;;1.33;;
66886;SDS011;53798;51.680;5.976;2022-09-03T14:40:56;3.53;;;1.20;;
66886;SDS011;53798;51.680;5.976;2022-09-03T14:44:10;2.28;;;1.30;;
66886;SDS011;53798;51.680;5.976;2022-09-03T14:47:28;5.00;;;1.23;;
66886;SDS011;53798;51.680;5.976;2022-09-03T14:56:28;3.88;;;1.25;;
66886;SDS011;53798;51.680;5.976;2022-09-03T15:11:16;1.77;;;1.20;;
66886;SDS011;53798;51.680;5.976;2022-09-03T15:13:50;1.88;;;1.13;;
66886;SDS011;53798;51.680;5.976;2022-09-03T15:16:32;4.85;;;1.10;;
66886;SDS011;53798;51.680;5.976;2022-09-03T15:19:18;3.55;;;1.27;;
66886;SDS011;53798;51.680;5.976;2022-09-03T15:27:55;5.25;;;1.20;;
66886;SDS011;53798;51.680;5.976;2022-09-03T15:30:42;1.70;;;1.25;;
66886;SDS011;53798;51.680;5.976;2022-09-03T15:36:16;4.80;;;1.52;;
66886;SDS011;53798;51.680;5.976;2022-09-03T15:38:51;4.15;;;1.25;;
66886;SDS011;53798;51.680;5.976;2022-09-03T15:41:33;1.67;;;1.15;;
66886;SDS011;53798;51.680;5.976;2022-09-03T15:44:44;5.53;;;1.30;;
66886;SDS011;53798;51.680;5.976;2022-09-03T15:50:33;2.85;;;1.30;;
66886;SDS011;53798;51.680;5.976;2022-09-03T15:53:20;2.60;;;1.35;;
66886;SDS011;53798;51.680;5.976;2022-09-03T16:01:58;1.98;;;1.40;;
66886;SDS011;53798;51.680;5.976;2022-09-03T16:04:41;3.85;;;1.30;;
66886;SDS011;53798;51.680;5.976;2022-09-03T16:12:56;3.63;;;1.30;;
66886;SDS011;53798;51.680;5.976;2022-09-03T16:15:35;4.43;;;1.25;;
66886;SDS011;53798;51.680;5.976;2022-09-03T16:18:40;2.80;;;1.50;;
66886;SDS011;53798;51.680;5.976;2022-09-03T16:21:31;3.45;;;1.30;;
66886;SDS011;53798;51.680;5.976;2022-09-03T16:26:47;3.25;;;1.10;;
66886;SDS011;53798;51.680;5.976;2022-09-03T16:29:29;3.20;;;1.42;;
66886;SDS011;53798;51.680;5.976;2022-09-03T16:32:04;2.15;;;1.15;;
66886;SDS011;53798;51.680;5.976;2022-09-03T16:37:45;3.15;;;1.30;;
66886;SDS011;53798;51.680;5.976;2022-09-03T16:43:32;3.08;;;1.15;;
66886;SDS011;53798;51.680;5.976;2022-09-03T16:46:22;3.53;;;1.30;;
66886;SDS011;53798;51.680;5.976;2022-09-03T16:57:53;3.63;;;1.40;;
66886;SDS011;53798;51.680;5.976;2022-09-03T17:01:02;4.68;;;1.50;;
66886;SDS011;53798;51.680;5.976;2022-09-03T17:03:42;1.77;;;1.23;;
66886;SDS011;53798;51.680;5.976;2022-09-03T17:06:39;2.80;;;1.30;;
66886;SDS011;53798;51.680;5.976;2022-09-03T17:09:24;2.00;;;1.40;;
66886;SDS011;53798;51.680;5.976;2022-09-03T17:17:59;2.25;;;1.50;;
66886;SDS011;53798;51.680;5.976;2022-09-03T17:21:17;4.57;;;1.40;;
66886;SDS011;53798;51.680;5.976;2022-09-03T17:24:14;1.75;;;1.50;;
66886;SDS011;53798;51.680;5.976;2022-09-03T17:30:10;2.45;;;1.55;;
66886;SDS011;53798;51.680;5.976;2022-09-03T17:36:09;3.58;;;1.67;;
66886;SDS011;53798;51.680;5.976;2022-09-03T17:38:58;5.43;;;1.70;;
66886;SDS011;53798;51.680;5.976;2022-09-03T17:42:15;4.23;;;1.57;;
66886;SDS011;53798;51.680;5.976;2022-09-03T17:56:59;4.10;;;1.75;;
66886;SDS011;53798;51.680;5.976;2022-09-03T18:02:38;2.38;;;1.60;;
66886;SDS011;53798;51.680;5.976;2022-09-03T18:17:04;5.00;;;1.80;;
66886;SDS011;53798;51.680;5.976;2022-09-03T18:19:53;4.47;;;2.28;;
66886;SDS011;53798;51.680;5.976;2022-09-03T18:23:06;7.78;;;2.35;;
66886;SDS011;53798;51.680;5.976;2022-09-03T18:26:04;2.85;;;2.22;;
66886;SDS011;53798;51.680;5.976;2022-09-03T18:29:00;5.03;;;2.60;;
66886;SDS011;53798;51.680;5.976;2022-09-03T18:31:55;4.57;;;2.70;;
66886;SDS011;53798;51.680;5.976;2022-09-03T18:34:41;3.10;;;2.65;;
66886;SDS011;53798;51.680;5.976;2022-09-03T18:37:27;3.78;;;2.92;;
66886;SDS011;53798;51.680;5.976;2022-09-03T18:40:15;2.70;;;2.50;;
66886;SDS011;53798;51.680;5.976;2022-09-03T18:46:30;4.53;;;3.50;;
66886;SDS011;53798;51.680;5.976;2022-09-03T18:56:13;4.50;;;3.33;;
66886;SDS011;53798;51.680;5.976;2022-09-03T19:02:26;7.57;;;3.40;;
66886;SDS011;53798;51.680;5.976;2022-09-03T19:11:11;6.38;;;3.15;;
66886;SDS011;53798;51.680;5.976;2022-09-03T19:14:26;5.65;;;3.10;;
66886;SDS011;53798;51.680;5.976;2022-09-03T19:20:57;3.05;;;2.75;;
66886;SDS011;53798;51.680;5.976;2022-09-03T19:24:00;4.10;;;2.80;;
66886;SDS011;53798;51.680;5.976;2022-09-03T19:26:51;2.72;;;2.47;;
66886;SDS011;53798;51.680;5.976;2022-09-03T19:30:13;4.82;;;2.75;;
66886;SDS011;53798;51.680;5.976;2022-09-03T19:47:03;3.83;;;2.85;;
66886;SDS011;53798;51.680;5.976;2022-09-03T19:50:04;3.63;;;2.50;;
66886;SDS011;53798;51.680;5.976;2022-09-03T19:53:03;4.05;;;2.50;;
66886;SDS011;53798;51.680;5.976;2022-09-03T19:55:57;4.40;;;2.47;;
66886;SDS011;53798;51.680;5.976;2022-09-03T19:58:55;2.50;;;2.30;;
66886;SDS011;53798;51.680;5.976;2022-09-03T20:01:48;5.88;;;2.50;;
66886;SDS011;53798;51.680;5.976;2022-09-03T20:08:07;6.20;;;2.88;;
66886;SDS011;53798;51.680;5.976;2022-09-03T20:10:59;5.05;;;3.13;;
66886;SDS011;53798;51.680;5.976;2022-09-03T20:13:29;3.90;;;3.17;;
66886;SDS011;53798;51.680;5.976;2022-09-03T20:16:20;4.18;;;3.30;;
66886;SDS011;53798;51.680;5.976;2022-09-03T20:21:47;4.35;;;3.20;;
66886;SDS011;53798;51.680;5.976;2022-09-03T20:27:19;3.97;;;3.20;;
66886;SDS011;53798;51.680;5.976;2022-09-03T20:30:05;6.15;;;3.40;;
66886;SDS011;53798;51.680;5.976;2022-09-03T20:32:51;4.75;;;3.40;;
66886;SDS011;53798;51.680;5.976;2022-09-03T20:36:35;7.63;;;3.22;;
66886;SDS011;53798;51.680;5.976;2022-09-03T20:39:19;7.68;;;3.40;;
66886;SDS011;53798;51.680;5.976;2022-09-03T20:42:09;6.63;;;4.15;;
66886;SDS011;53798;51.680;5.976;2022-09-03T20:48:10;9.63;;;5.45;;
66886;SDS011;53798;51.680;5.976;2022-09-03T20:51:02;6.68;;;4.15;;
66886;SDS011;53798;51.680;5.976;2022-09-03T20:56:55;8.13;;;4.57;;
66886;SDS011;53798;51.680;5.976;2022-09-03T21:05:31;5.38;;;3.40;;
66886;SDS011;53798;51.680;5.976;2022-09-03T21:12:11;5.57;;;3.17;;
66886;SDS011;53798;51.680;5.976;2022-09-03T21:14:45;5.05;;;3.20;;
66886;SDS011;53798;51.680;5.976;2022-09-03T21:20:54;7.40;;;3.13;;
66886;SDS011;53798;51.680;5.976;2022-09-03T21:23:47;5.72;;;2.63;;
66886;SDS011;53798;51.680;5.976;2022-09-03T21:26:47;3.33;;;3.00;;